sensor_id;sensor_type;location;lat;lon;timestamp;P1;durP1;ratioP1;P2;durP2;ratioP2
15996;SDS011;8103;51.340;12.326;2023-04-15T00:00:59;12.45;;;10.57;;
15996;SDS011;8103;51.340;12.326;2023-04-15T00:03:26;16.38;;;13.07;;
15996;SDS011;8103;51.340;12.326;2023-04-15T00:05:55;9.38;;;8.25;;
15996;SDS011;8103;51.340;12.326;2023-04-15T00:08:23;8.32;;;7.53;;
15996;SDS011;8103;51.340;12.326;2023-04-15T00:10:50;9.43;;;8.50;;
15996;SDS011;8103;51.340;12.326;2023-04-15T00:13:17;8.32;;;7.47;;
15996;SDS011;8103;51.340;12.326;2023-04-15T00:15:45;7.25;;;6.55;;
15996;SDS011;8103;51.340;12.326;2023-04-15T00:18:13;6.05;;;5.53;;
15996;SDS011;8103;51.340;12.326;2023-04-15T00:20:41;6.95;;;5.78;;
15996;SDS011;8103;51.340;12.326;2023-04-15T00:23:07;6.40;;;5.72;;
15996;SDS011;8103;51.340;12.326;2023-04-15T00:25:34;7.28;;;6.05;;
15996;SDS011;8103;51.340;12.326;2023-04-15T00:28:01;13.40;;;9.80;;
15996;SDS011;8103;51.340;12.326;2023-04-15T00:30:29;7.95;;;6.53;;
15996;SDS011;8103;51.340;12.326;2023-04-15T00:32:56;7.25;;;6.43;;
15996;SDS011;8103;51.340;12.326;2023-04-15T00:35:23;5.57;;;4.93;;
15996;SDS011;8103;51.340;12.326;2023-04-15T00:37:50;9.65;;;6.88;;
15996;SDS011;8103;51.340;12.326;2023-04-15T00:40:18;12.35;;;9.45;;
15996;SDS011;8103;51.340;12.326;2023-04-15T00:42:46;6.88;;;6.10;;
15996;SDS011;8103;51.340;12.326;2023-04-15T00:45:13;7.72;;;6.93;;
15996;SDS011;8103;51.340;12.326;2023-04-15T00:47:40;7.20;;;6.50;;
15996;SDS011;8103;51.340;12.326;2023-04-15T00:50:09;5.97;;;5.38;;
15996;SDS011;8103;51.340;12.326;2023-04-15T00:52:38;5.85;;;5.35;;
15996;SDS011;8103;51.340;12.326;2023-04-15T00:55:06;6.47;;;5.65;;
15996;SDS011;8103;51.340;12.326;2023-04-15T00:57:34;7.35;;;5.72;;
15996;SDS011;8103;51.340;12.326;2023-04-15T01:00:01;6.97;;;6.28;;
15996;SDS011;8103;51.340;12.326;2023-04-15T01:02:30;6.93;;;6.13;;
15996;SDS011;8103;51.340;12.326;2023-04-15T01:04:58;9.00;;;7.60;;
15996;SDS011;8103;51.340;12.326;2023-04-15T01:07:25;5.72;;;5.20;;
15996;SDS011;8103;51.340;12.326;2023-04-15T01:09:53;4.53;;;4.13;;
15996;SDS011;8103;51.340;12.326;2023-04-15T01:12:19;5.28;;;4.78;;
15996;SDS011;8103;51.340;12.326;2023-04-15T01:14:46;5.40;;;4.90;;
15996;SDS011;8103;51.340;12.326;2023-04-15T01:17:13;5.63;;;5.00;;
15996;SDS011;8103;51.340;12.326;2023-04-15T01:19:40;5.80;;;5.00;;
15996;SDS011;8103;51.340;12.326;2023-04-15T01:22:07;6.05;;;5.45;;
15996;SDS011;8103;51.340;12.326;2023-04-15T01:24:34;6.68;;;5.95;;
15996;SDS011;8103;51.340;12.326;2023-04-15T01:27:03;5.75;;;5.15;;
15996;SDS011;8103;51.340;12.326;2023-04-15T01:29:31;6.03;;;5.32;;
15996;SDS011;8103;51.340;12.326;2023-04-15T01:32:03;5.72;;;4.65;;
15996;SDS011;8103;51.340;12.326;2023-04-15T01:34:31;6.30;;;5.00;;
15996;SDS011;8103;51.340;12.326;2023-04-15T01:37:00;7.10;;;6.18;;
15996;SDS011;8103;51.340;12.326;2023-04-15T01:39:26;7.15;;;6.45;;
15996;SDS011;8103;51.340;12.326;2023-04-15T01:41:53;6.00;;;5.47;;
15996;SDS011;8103;51.340;12.326;2023-04-15T01:44:20;5.22;;;4.72;;
15996;SDS011;8103;51.340;12.326;2023-04-15T01:46:47;5.22;;;4.55;;
15996;SDS011;8103;51.340;12.326;2023-04-15T01:49:14;5.32;;;4.82;;
15996;SDS011;8103;51.340;12.326;2023-04-15T01:51:42;5.88;;;5.03;;
15996;SDS011;8103;51.340;12.326;2023-04-15T01:54:08;7.18;;;6.47;;
15996;SDS011;8103;51.340;12.326;2023-04-15T01:56:35;6.03;;;5.20;;
15996;SDS011;8103;51.340;12.326;2023-04-15T01:59:02;7.95;;;5.65;;
15996;SDS011;8103;51.340;12.326;2023-04-15T02:01:29;6.15;;;5.15;;
15996;SDS011;8103;51.340;12.326;2023-04-15T02:03:56;5.55;;;5.00;;
15996;SDS011;8103;51.340;12.326;2023-04-15T02:06:23;5.85;;;5.35;;
15996;SDS011;8103;51.340;12.326;2023-04-15T02:08:50;5.30;;;4.35;;
15996;SDS011;8103;51.340;12.326;2023-04-15T02:11:17;6.97;;;5.05;;
15996;SDS011;8103;51.340;12.326;2023-04-15T02:13:44;4.82;;;4.28;;
15996;SDS011;8103;51.340;12.326;2023-04-15T02:16:18;4.95;;;4.40;;
15996;SDS011;8103;51.340;12.326;2023-04-15T02:18:45;4.50;;;4.03;;
15996;SDS011;8103;51.340;12.326;2023-04-15T02:21:13;5.32;;;4.82;;
15996;SDS011;8103;51.340;12.326;2023-04-15T02:23:40;5.03;;;4.53;;
15996;SDS011;8103;51.340;12.326;2023-04-15T02:26:09;5.10;;;4.60;;
15996;SDS011;8103;51.340;12.326;2023-04-15T02:28:36;5.15;;;4.35;;
15996;SDS011;8103;51.340;12.326;2023-04-15T02:31:06;5.40;;;4.88;;
15996;SDS011;8103;51.340;12.326;2023-04-15T02:33:34;6.20;;;5.60;;
15996;SDS011;8103;51.340;12.326;2023-04-15T02:36:03;4.97;;;4.43;;
15996;SDS011;8103;51.340;12.326;2023-04-15T02:38:30;6.13;;;4.72;;
15996;SDS011;8103;51.340;12.326;2023-04-15T02:40:57;5.78;;;5.18;;
15996;SDS011;8103;51.340;12.326;2023-04-15T02:43:24;7.25;;;5.40;;
15996;SDS011;8103;51.340;12.326;2023-04-15T02:45:51;5.93;;;5.32;;
15996;SDS011;8103;51.340;12.326;2023-04-15T02:48:18;5.43;;;4.90;;
15996;SDS011;8103;51.340;12.326;2023-04-15T02:50:45;9.38;;;7.00;;
15996;SDS011;8103;51.340;12.326;2023-04-15T02:53:13;9.38;;;6.78;;
15996;SDS011;8103;51.340;12.326;2023-04-15T02:55:40;9.18;;;7.10;;
15996;SDS011;8103;51.340;12.326;2023-04-15T02:58:08;8.57;;;6.88;;
15996;SDS011;8103;51.340;12.326;2023-04-15T03:00:34;8.43;;;6.10;;
15996;SDS011;8103;51.340;12.326;2023-04-15T03:03:02;14.50;;;10.05;;
15996;SDS011;8103;51.340;12.326;2023-04-15T03:05:31;11.38;;;8.45;;
15996;SDS011;8103;51.340;12.326;2023-04-15T03:07:58;9.82;;;8.10;;
15996;SDS011;8103;51.340;12.326;2023-04-15T03:10:26;12.07;;;9.30;;
15996;SDS011;8103;51.340;12.326;2023-04-15T03:12:53;9.93;;;8.45;;
15996;SDS011;8103;51.340;12.326;2023-04-15T03:15:20;10.25;;;9.20;;
15996;SDS011;8103;51.340;12.326;2023-04-15T03:17:47;9.75;;;8.50;;
15996;SDS011;8103;51.340;12.326;2023-04-15T03:20:14;10.15;;;9.05;;
15996;SDS011;8103;51.340;12.326;2023-04-15T03:22:42;8.32;;;7.53;;
15996;SDS011;8103;51.340;12.326;2023-04-15T03:25:08;9.25;;;8.23;;
15996;SDS011;8103;51.340;12.326;2023-04-15T03:27:36;8.98;;;7.68;;
15996;SDS011;8103;51.340;12.326;2023-04-15T03:30:03;8.70;;;7.75;;
15996;SDS011;8103;51.340;12.326;2023-04-15T03:32:32;7.68;;;6.85;;
15996;SDS011;8103;51.340;12.326;2023-04-15T03:34:59;6.55;;;5.93;;
15996;SDS011;8103;51.340;12.326;2023-04-15T03:37:26;7.30;;;6.55;;
15996;SDS011;8103;51.340;12.326;2023-04-15T03:39:53;6.20;;;5.57;;
15996;SDS011;8103;51.340;12.326;2023-04-15T03:42:20;7.93;;;5.93;;
15996;SDS011;8103;51.340;12.326;2023-04-15T03:44:46;5.82;;;5.25;;
15996;SDS011;8103;51.340;12.326;2023-04-15T03:47:13;5.00;;;4.50;;
15996;SDS011;8103;51.340;12.326;2023-04-15T03:49:40;6.47;;;4.88;;
15996;SDS011;8103;51.340;12.326;2023-04-15T03:52:07;6.25;;;5.47;;
15996;SDS011;8103;51.340;12.326;2023-04-15T03:54:34;5.90;;;5.30;;
15996;SDS011;8103;51.340;12.326;2023-04-15T03:57:01;6.40;;;5.68;;
15996;SDS011;8103;51.340;12.326;2023-04-15T03:59:28;5.20;;;4.63;;
15996;SDS011;8103;51.340;12.326;2023-04-15T04:01:55;5.38;;;4.88;;
15996;SDS011;8103;51.340;12.326;2023-04-15T04:04:22;5.97;;;4.88;;
15996;SDS011;8103;51.340;12.326;2023-04-15T04:06:49;5.22;;;4.72;;
15996;SDS011;8103;51.340;12.326;2023-04-15T04:09:16;4.57;;;4.20;;
15996;SDS011;8103;51.340;12.326;2023-04-15T04:11:43;4.75;;;4.30;;
15996;SDS011;8103;51.340;12.326;2023-04-15T04:14:10;4.43;;;4.00;;
15996;SDS011;8103;51.340;12.326;2023-04-15T04:16:38;5.55;;;4.38;;
15996;SDS011;8103;51.340;12.326;2023-04-15T04:19:05;4.70;;;4.28;;
15996;SDS011;8103;51.340;12.326;2023-04-15T04:21:32;5.82;;;4.32;;
15996;SDS011;8103;51.340;12.326;2023-04-15T04:23:59;4.80;;;4.22;;
15996;SDS011;8103;51.340;12.326;2023-04-15T04:26:26;4.72;;;4.22;;
15996;SDS011;8103;51.340;12.326;2023-04-15T04:28:53;5.47;;;4.80;;
15996;SDS011;8103;51.340;12.326;2023-04-15T04:31:20;4.55;;;4.15;;
15996;SDS011;8103;51.340;12.326;2023-04-15T04:33:47;4.68;;;3.92;;
15996;SDS011;8103;51.340;12.326;2023-04-15T04:36:14;4.82;;;4.15;;
15996;SDS011;8103;51.340;12.326;2023-04-15T04:38:41;4.97;;;4.38;;
15996;SDS011;8103;51.340;12.326;2023-04-15T04:41:08;4.03;;;3.63;;
15996;SDS011;8103;51.340;12.326;2023-04-15T04:43:35;4.20;;;3.80;;
15996;SDS011;8103;51.340;12.326;2023-04-15T04:46:02;3.90;;;3.50;;
15996;SDS011;8103;51.340;12.326;2023-04-15T04:48:28;4.20;;;3.80;;
15996;SDS011;8103;51.340;12.326;2023-04-15T04:50:55;3.78;;;3.38;;
15996;SDS011;8103;51.340;12.326;2023-04-15T04:53:23;5.68;;;4.05;;
15996;SDS011;8103;51.340;12.326;2023-04-15T04:55:49;3.67;;;3.33;;
15996;SDS011;8103;51.340;12.326;2023-04-15T04:58:16;4.30;;;3.65;;
15996;SDS011;8103;51.340;12.326;2023-04-15T05:00:43;5.63;;;4.97;;
15996;SDS011;8103;51.340;12.326;2023-04-15T05:03:10;4.13;;;3.72;;
15996;SDS011;8103;51.340;12.326;2023-04-15T05:05:37;5.35;;;4.85;;
15996;SDS011;8103;51.340;12.326;2023-04-15T05:08:06;4.32;;;3.92;;
15996;SDS011;8103;51.340;12.326;2023-04-15T05:10:33;4.95;;;4.35;;
15996;SDS011;8103;51.340;12.326;2023-04-15T05:12:59;4.90;;;4.25;;
15996;SDS011;8103;51.340;12.326;2023-04-15T05:15:26;5.28;;;3.80;;
15996;SDS011;8103;51.340;12.326;2023-04-15T05:17:53;6.13;;;4.72;;
15996;SDS011;8103;51.340;12.326;2023-04-15T05:20:20;5.30;;;4.53;;
15996;SDS011;8103;51.340;12.326;2023-04-15T05:22:47;6.28;;;4.82;;
15996;SDS011;8103;51.340;12.326;2023-04-15T05:25:14;5.00;;;4.55;;
15996;SDS011;8103;51.340;12.326;2023-04-15T05:27:41;5.25;;;4.40;;
15996;SDS011;8103;51.340;12.326;2023-04-15T05:30:08;4.72;;;4.20;;
15996;SDS011;8103;51.340;12.326;2023-04-15T05:32:38;5.07;;;4.57;;
15996;SDS011;8103;51.340;12.326;2023-04-15T05:35:04;4.78;;;4.22;;
15996;SDS011;8103;51.340;12.326;2023-04-15T05:37:33;4.57;;;4.18;;
15996;SDS011;8103;51.340;12.326;2023-04-15T05:40:00;4.70;;;4.20;;
15996;SDS011;8103;51.340;12.326;2023-04-15T05:42:26;4.60;;;3.55;;
15996;SDS011;8103;51.340;12.326;2023-04-15T05:44:53;4.75;;;4.20;;
15996;SDS011;8103;51.340;12.326;2023-04-15T05:47:20;4.90;;;4.03;;
15996;SDS011;8103;51.340;12.326;2023-04-15T05:49:47;4.72;;;4.32;;
15996;SDS011;8103;51.340;12.326;2023-04-15T05:52:14;5.28;;;4.60;;
15996;SDS011;8103;51.340;12.326;2023-04-15T05:54:41;4.13;;;3.72;;
15996;SDS011;8103;51.340;12.326;2023-04-15T05:57:08;4.95;;;4.43;;
15996;SDS011;8103;51.340;12.326;2023-04-15T05:59:35;5.65;;;4.68;;
15996;SDS011;8103;51.340;12.326;2023-04-15T06:02:03;5.50;;;4.78;;
15996;SDS011;8103;51.340;12.326;2023-04-15T06:04:31;4.88;;;4.38;;
15996;SDS011;8103;51.340;12.326;2023-04-15T06:06:58;3.63;;;3.30;;
15996;SDS011;8103;51.340;12.326;2023-04-15T06:09:24;4.05;;;3.65;;
15996;SDS011;8103;51.340;12.326;2023-04-15T06:11:51;4.07;;;3.78;;
15996;SDS011;8103;51.340;12.326;2023-04-15T06:14:18;4.90;;;4.40;;
15996;SDS011;8103;51.340;12.326;2023-04-15T06:16:45;3.92;;;3.55;;
15996;SDS011;8103;51.340;12.326;2023-04-15T06:19:12;3.83;;;3.53;;
15996;SDS011;8103;51.340;12.326;2023-04-15T06:21:39;4.30;;;3.90;;
15996;SDS011;8103;51.340;12.326;2023-04-15T06:24:08;5.72;;;3.63;;
15996;SDS011;8103;51.340;12.326;2023-04-15T06:26:35;4.88;;;3.50;;
15996;SDS011;8103;51.340;12.326;2023-04-15T06:29:02;5.60;;;4.38;;
15996;SDS011;8103;51.340;12.326;2023-04-15T06:31:29;4.15;;;3.75;;
15996;SDS011;8103;51.340;12.326;2023-04-15T06:33:56;10.32;;;7.68;;
15996;SDS011;8103;51.340;12.326;2023-04-15T06:36:23;5.55;;;4.75;;
15996;SDS011;8103;51.340;12.326;2023-04-15T06:38:49;4.30;;;3.40;;
15996;SDS011;8103;51.340;12.326;2023-04-15T06:41:16;4.47;;;4.07;;
15996;SDS011;8103;51.340;12.326;2023-04-15T06:43:43;5.15;;;3.78;;
15996;SDS011;8103;51.340;12.326;2023-04-15T06:46:10;4.82;;;3.95;;
15996;SDS011;8103;51.340;12.326;2023-04-15T06:48:37;4.07;;;3.75;;
15996;SDS011;8103;51.340;12.326;2023-04-15T06:51:04;3.92;;;3.53;;
15996;SDS011;8103;51.340;12.326;2023-04-15T06:53:31;4.97;;;4.47;;
15996;SDS011;8103;51.340;12.326;2023-04-15T06:55:58;3.47;;;3.17;;
15996;SDS011;8103;51.340;12.326;2023-04-15T06:58:25;4.53;;;4.03;;
15996;SDS011;8103;51.340;12.326;2023-04-15T07:00:52;4.50;;;4.10;;
15996;SDS011;8103;51.340;12.326;2023-04-15T07:03:19;4.57;;;3.92;;
15996;SDS011;8103;51.340;12.326;2023-04-15T07:05:45;4.60;;;4.10;;
15996;SDS011;8103;51.340;12.326;2023-04-15T07:08:12;5.32;;;4.82;;
15996;SDS011;8103;51.340;12.326;2023-04-15T07:10:40;6.57;;;5.97;;
15996;SDS011;8103;51.340;12.326;2023-04-15T07:13:07;6.40;;;5.80;;
15996;SDS011;8103;51.340;12.326;2023-04-15T07:15:34;6.28;;;5.68;;
15996;SDS011;8103;51.340;12.326;2023-04-15T07:18:01;7.68;;;6.45;;
15996;SDS011;8103;51.340;12.326;2023-04-15T07:20:28;6.03;;;5.43;;
15996;SDS011;8103;51.340;12.326;2023-04-15T07:22:58;6.85;;;6.15;;
15996;SDS011;8103;51.340;12.326;2023-04-15T07:29:31;6.40;;;5.80;;
15996;SDS011;8103;51.340;12.326;2023-04-15T07:31:58;7.30;;;6.47;;
15996;SDS011;8103;51.340;12.326;2023-04-15T07:34:25;6.55;;;5.78;;
15996;SDS011;8103;51.340;12.326;2023-04-15T07:36:54;6.93;;;6.18;;
15996;SDS011;8103;51.340;12.326;2023-04-15T07:39:21;7.00;;;6.30;;
15996;SDS011;8103;51.340;12.326;2023-04-15T07:41:48;7.82;;;6.78;;
15996;SDS011;8103;51.340;12.326;2023-04-15T07:44:16;6.68;;;6.05;;
15996;SDS011;8103;51.340;12.326;2023-04-15T07:46:43;6.28;;;5.60;;
15996;SDS011;8103;51.340;12.326;2023-04-15T07:49:10;6.70;;;6.07;;
15996;SDS011;8103;51.340;12.326;2023-04-15T07:51:38;7.53;;;6.55;;
15996;SDS011;8103;51.340;12.326;2023-04-15T07:54:05;7.80;;;7.00;;
15996;SDS011;8103;51.340;12.326;2023-04-15T07:56:35;8.10;;;7.28;;
15996;SDS011;8103;51.340;12.326;2023-04-15T07:59:01;7.80;;;7.10;;
15996;SDS011;8103;51.340;12.326;2023-04-15T08:01:29;7.95;;;7.07;;
15996;SDS011;8103;51.340;12.326;2023-04-15T08:03:56;8.30;;;7.47;;
15996;SDS011;8103;51.340;12.326;2023-04-15T08:06:24;8.50;;;7.70;;
15996;SDS011;8103;51.340;12.326;2023-04-15T08:08:52;10.45;;;7.15;;
15996;SDS011;8103;51.340;12.326;2023-04-15T08:11:22;9.48;;;7.78;;
15996;SDS011;8103;51.340;12.326;2023-04-15T08:13:49;9.02;;;8.13;;
15996;SDS011;8103;51.340;12.326;2023-04-15T08:16:21;7.35;;;6.60;;
15996;SDS011;8103;51.340;12.326;2023-04-15T08:18:50;9.52;;;7.20;;
15996;SDS011;8103;51.340;12.326;2023-04-15T08:21:19;9.25;;;7.90;;
15996;SDS011;8103;51.340;12.326;2023-04-15T08:23:47;8.93;;;7.82;;
15996;SDS011;8103;51.340;12.326;2023-04-15T08:26:16;7.78;;;7.00;;
15996;SDS011;8103;51.340;12.326;2023-04-15T08:28:44;10.35;;;7.43;;
15996;SDS011;8103;51.340;12.326;2023-04-15T08:31:15;6.97;;;6.30;;
15996;SDS011;8103;51.340;12.326;2023-04-15T08:33:44;7.15;;;6.45;;
15996;SDS011;8103;51.340;12.326;2023-04-15T08:36:12;7.50;;;6.80;;
15996;SDS011;8103;51.340;12.326;2023-04-15T08:38:39;7.30;;;6.45;;
15996;SDS011;8103;51.340;12.326;2023-04-15T08:41:08;6.95;;;6.35;;
15996;SDS011;8103;51.340;12.326;2023-04-15T08:43:58;9.02;;;7.18;;
15996;SDS011;8103;51.340;12.326;2023-04-15T08:46:32;9.55;;;6.75;;
15996;SDS011;8103;51.340;12.326;2023-04-15T08:49:01;6.63;;;5.95;;
15996;SDS011;8103;51.340;12.326;2023-04-15T08:51:30;8.18;;;6.75;;
15996;SDS011;8103;51.340;12.326;2023-04-15T08:53:59;8.35;;;6.32;;
15996;SDS011;8103;51.340;12.326;2023-04-15T08:56:27;7.50;;;6.72;;
15996;SDS011;8103;51.340;12.326;2023-04-15T08:58:59;8.90;;;7.50;;
15996;SDS011;8103;51.340;12.326;2023-04-15T09:01:27;8.57;;;7.00;;
15996;SDS011;8103;51.340;12.326;2023-04-15T09:03:55;7.97;;;6.78;;
15996;SDS011;8103;51.340;12.326;2023-04-15T09:06:25;10.45;;;9.20;;
15996;SDS011;8103;51.340;12.326;2023-04-15T09:08:52;9.88;;;8.25;;
15996;SDS011;8103;51.340;12.326;2023-04-15T09:11:20;9.52;;;8.32;;
15996;SDS011;8103;51.340;12.326;2023-04-15T09:13:48;9.20;;;8.20;;
15996;SDS011;8103;51.340;12.326;2023-04-15T09:16:14;9.50;;;8.40;;
15996;SDS011;8103;51.340;12.326;2023-04-15T09:18:41;9.60;;;8.38;;
15996;SDS011;8103;51.340;12.326;2023-04-15T09:21:09;12.40;;;8.90;;
15996;SDS011;8103;51.340;12.326;2023-04-15T09:23:57;10.63;;;9.25;;
15996;SDS011;8103;51.340;12.326;2023-04-15T09:26:31;10.48;;;9.38;;
15996;SDS011;8103;51.340;12.326;2023-04-15T09:29:06;13.38;;;9.70;;
15996;SDS011;8103;51.340;12.326;2023-04-15T09:31:36;11.15;;;9.23;;
15996;SDS011;8103;51.340;12.326;2023-04-15T09:34:03;9.93;;;8.90;;
15996;SDS011;8103;51.340;12.326;2023-04-15T09:36:37;10.45;;;9.40;;
15996;SDS011;8103;51.340;12.326;2023-04-15T09:39:25;11.45;;;9.75;;
15996;SDS011;8103;51.340;12.326;2023-04-15T09:42:05;12.98;;;10.38;;
15996;SDS011;8103;51.340;12.326;2023-04-15T09:44:33;17.88;;;10.90;;
15996;SDS011;8103;51.340;12.326;2023-04-15T09:47:00;11.43;;;9.60;;
15996;SDS011;8103;51.340;12.326;2023-04-15T09:49:27;14.90;;;11.02;;
15996;SDS011;8103;51.340;12.326;2023-04-15T09:51:58;12.60;;;10.50;;
15996;SDS011;8103;51.340;12.326;2023-04-15T09:54:32;12.60;;;10.05;;
15996;SDS011;8103;51.340;12.326;2023-04-15T09:57:04;9.77;;;8.75;;
15996;SDS011;8103;51.340;12.326;2023-04-15T09:59:33;11.07;;;9.82;;
15996;SDS011;8103;51.340;12.326;2023-04-15T10:02:03;11.82;;;10.20;;
15996;SDS011;8103;51.340;12.326;2023-04-15T10:08:39;13.07;;;10.50;;
15996;SDS011;8103;51.340;12.326;2023-04-15T10:11:07;13.00;;;10.35;;
15996;SDS011;8103;51.340;12.326;2023-04-15T10:13:34;15.93;;;12.52;;
15996;SDS011;8103;51.340;12.326;2023-04-15T10:16:04;14.38;;;11.55;;
15996;SDS011;8103;51.340;12.326;2023-04-15T10:18:43;14.63;;;12.60;;
15996;SDS011;8103;51.340;12.326;2023-04-15T10:21:12;14.00;;;12.07;;
15996;SDS011;8103;51.340;12.326;2023-04-15T10:23:46;14.15;;;12.00;;
15996;SDS011;8103;51.340;12.326;2023-04-15T10:26:13;13.77;;;11.55;;
15996;SDS011;8103;51.340;12.326;2023-04-15T10:28:45;15.48;;;13.80;;
15996;SDS011;8103;51.340;12.326;2023-04-15T10:31:14;15.27;;;12.65;;
15996;SDS011;8103;51.340;12.326;2023-04-15T10:33:43;15.45;;;13.88;;
15996;SDS011;8103;51.340;12.326;2023-04-15T10:36:13;16.52;;;13.15;;
15996;SDS011;8103;51.340;12.326;2023-04-15T10:38:44;15.43;;;12.30;;
15996;SDS011;8103;51.340;12.326;2023-04-15T10:41:12;15.88;;;14.20;;
15996;SDS011;8103;51.340;12.326;2023-04-15T10:43:49;14.75;;;12.18;;
15996;SDS011;8103;51.340;12.326;2023-04-15T10:46:44;14.13;;;12.48;;
15996;SDS011;8103;51.340;12.326;2023-04-15T10:49:11;13.98;;;11.38;;
15996;SDS011;8103;51.340;12.326;2023-04-15T10:51:49;15.82;;;14.13;;
15996;SDS011;8103;51.340;12.326;2023-04-15T10:57:06;16.33;;;13.63;;
15996;SDS011;8103;51.340;12.326;2023-04-15T11:05:23;15.13;;;12.15;;
15996;SDS011;8103;51.340;12.326;2023-04-15T11:08:17;12.77;;;11.02;;
15996;SDS011;8103;51.340;12.326;2023-04-15T11:13:20;15.68;;;13.13;;
15996;SDS011;8103;51.340;12.326;2023-04-15T11:15:48;12.70;;;11.20;;
15996;SDS011;8103;51.340;12.326;2023-04-15T11:18:21;14.05;;;12.55;;
15996;SDS011;8103;51.340;12.326;2023-04-15T11:20:57;11.60;;;10.40;;
15996;SDS011;8103;51.340;12.326;2023-04-15T11:26:06;13.52;;;11.85;;
15996;SDS011;8103;51.340;12.326;2023-04-15T11:28:41;15.13;;;13.27;;
15996;SDS011;8103;51.340;12.326;2023-04-15T11:31:14;13.85;;;12.35;;
15996;SDS011;8103;51.340;12.326;2023-04-15T11:33:52;13.57;;;11.57;;
15996;SDS011;8103;51.340;12.326;2023-04-15T11:36:25;13.57;;;11.85;;
15996;SDS011;8103;51.340;12.326;2023-04-15T11:38:54;11.63;;;10.43;;
15996;SDS011;8103;51.340;12.326;2023-04-15T11:41:24;15.43;;;13.82;;
15996;SDS011;8103;51.340;12.326;2023-04-15T11:43:51;17.90;;;15.13;;
15996;SDS011;8103;51.340;12.326;2023-04-15T11:46:19;18.08;;;15.65;;
15996;SDS011;8103;51.340;12.326;2023-04-15T11:48:48;26.15;;;19.67;;
15996;SDS011;8103;51.340;12.326;2023-04-15T11:51:14;20.38;;;16.48;;
15996;SDS011;8103;51.340;12.326;2023-04-15T11:53:45;24.92;;;17.75;;
15996;SDS011;8103;51.340;12.326;2023-04-15T11:56:21;35.13;;;22.75;;
15996;SDS011;8103;51.340;12.326;2023-04-15T11:58:54;36.22;;;22.92;;
15996;SDS011;8103;51.340;12.326;2023-04-15T12:01:36;27.38;;;18.88;;
15996;SDS011;8103;51.340;12.326;2023-04-15T12:04:16;30.02;;;21.02;;
15996;SDS011;8103;51.340;12.326;2023-04-15T12:06:50;21.75;;;17.17;;
15996;SDS011;8103;51.340;12.326;2023-04-15T12:09:17;13.52;;;12.07;;
15996;SDS011;8103;51.340;12.326;2023-04-15T12:11:46;13.82;;;12.40;;
15996;SDS011;8103;51.340;12.326;2023-04-15T12:17:00;24.75;;;18.00;;
15996;SDS011;8103;51.340;12.326;2023-04-15T12:19:31;35.60;;;18.83;;
15996;SDS011;8103;51.340;12.326;2023-04-15T12:22:15;53.05;;;26.40;;
15996;SDS011;8103;51.340;12.326;2023-04-15T12:24:43;31.92;;;18.25;;
15996;SDS011;8103;51.340;12.326;2023-04-15T12:27:14;21.63;;;14.18;;
15996;SDS011;8103;51.340;12.326;2023-04-15T12:29:42;26.02;;;16.48;;
15996;SDS011;8103;51.340;12.326;2023-04-15T12:32:15;41.92;;;22.65;;
15996;SDS011;8103;51.340;12.326;2023-04-15T12:34:49;22.30;;;14.55;;
15996;SDS011;8103;51.340;12.326;2023-04-15T12:37:19;18.17;;;12.27;;
15996;SDS011;8103;51.340;12.326;2023-04-15T12:39:47;24.50;;;13.93;;
15996;SDS011;8103;51.340;12.326;2023-04-15T12:42:16;32.38;;;17.23;;
15996;SDS011;8103;51.340;12.326;2023-04-15T12:44:44;25.20;;;15.65;;
15996;SDS011;8103;51.340;12.326;2023-04-15T12:47:13;18.55;;;12.07;;
15996;SDS011;8103;51.340;12.326;2023-04-15T12:49:40;16.83;;;11.20;;
15996;SDS011;8103;51.340;12.326;2023-04-15T12:52:07;17.70;;;11.18;;
15996;SDS011;8103;51.340;12.326;2023-04-15T12:54:34;19.98;;;12.65;;
15996;SDS011;8103;51.340;12.326;2023-04-15T12:57:03;19.23;;;10.90;;
15996;SDS011;8103;51.340;12.326;2023-04-15T12:59:32;19.10;;;12.55;;
15996;SDS011;8103;51.340;12.326;2023-04-15T13:01:59;59.42;;;39.53;;
15996;SDS011;8103;51.340;12.326;2023-04-15T13:08:34;30.98;;;23.10;;
15996;SDS011;8103;51.340;12.326;2023-04-15T13:11:07;22.65;;;18.23;;
15996;SDS011;8103;51.340;12.326;2023-04-15T13:13:35;24.67;;;22.00;;
15996;SDS011;8103;51.340;12.326;2023-04-15T13:16:02;19.55;;;17.10;;
15996;SDS011;8103;51.340;12.326;2023-04-15T13:18:30;34.78;;;30.10;;
15996;SDS011;8103;51.340;12.326;2023-04-15T13:21:01;23.80;;;21.25;;
15996;SDS011;8103;51.340;12.326;2023-04-15T13:23:31;18.05;;;16.05;;
15996;SDS011;8103;51.340;12.326;2023-04-15T13:25:58;42.92;;;38.22;;
15996;SDS011;8103;51.340;12.326;2023-04-15T13:28:28;30.13;;;26.58;;
15996;SDS011;8103;51.340;12.326;2023-04-15T13:33:52;37.33;;;32.53;;
15996;SDS011;8103;51.340;12.326;2023-04-15T13:36:19;16.85;;;15.15;;
15996;SDS011;8103;51.340;12.326;2023-04-15T13:38:46;20.58;;;18.38;;
15996;SDS011;8103;51.340;12.326;2023-04-15T13:41:16;26.17;;;21.35;;
15996;SDS011;8103;51.340;12.326;2023-04-15T13:43:43;19.17;;;17.02;;
15996;SDS011;8103;51.340;12.326;2023-04-15T13:46:10;11.45;;;9.48;;
15996;SDS011;8103;51.340;12.326;2023-04-15T13:48:37;14.82;;;11.75;;
15996;SDS011;8103;51.340;12.326;2023-04-15T13:51:03;21.65;;;16.30;;
15996;SDS011;8103;51.340;12.326;2023-04-15T13:53:31;15.40;;;12.27;;
15996;SDS011;8103;51.340;12.326;2023-04-15T13:55:59;14.30;;;12.20;;
15996;SDS011;8103;51.340;12.326;2023-04-15T13:58:27;12.05;;;10.35;;
15996;SDS011;8103;51.340;12.326;2023-04-15T14:00:54;11.50;;;10.32;;
15996;SDS011;8103;51.340;12.326;2023-04-15T14:03:21;10.55;;;9.43;;
15996;SDS011;8103;51.340;12.326;2023-04-15T14:05:48;6.38;;;5.70;;
15996;SDS011;8103;51.340;12.326;2023-04-15T14:08:24;7.75;;;6.95;;
15996;SDS011;8103;51.340;12.326;2023-04-15T14:10:51;6.57;;;5.97;;
15996;SDS011;8103;51.340;12.326;2023-04-15T14:13:18;7.53;;;6.00;;
15996;SDS011;8103;51.340;12.326;2023-04-15T14:15:45;7.25;;;6.55;;
15996;SDS011;8103;51.340;12.326;2023-04-15T14:18:12;9.50;;;8.38;;
15996;SDS011;8103;51.340;12.326;2023-04-15T14:20:39;17.10;;;13.95;;
15996;SDS011;8103;51.340;12.326;2023-04-15T14:23:06;21.20;;;18.95;;
15996;SDS011;8103;51.340;12.326;2023-04-15T14:25:34;12.98;;;11.68;;
15996;SDS011;8103;51.340;12.326;2023-04-15T14:28:03;9.25;;;8.35;;
15996;SDS011;8103;51.340;12.326;2023-04-15T14:30:31;8.05;;;7.35;;
15996;SDS011;8103;51.340;12.326;2023-04-15T14:33:00;6.80;;;6.20;;
15996;SDS011;8103;51.340;12.326;2023-04-15T14:35:27;11.57;;;9.27;;
15996;SDS011;8103;51.340;12.326;2023-04-15T14:37:54;9.52;;;8.25;;
15996;SDS011;8103;51.340;12.326;2023-04-15T14:40:22;9.13;;;8.15;;
15996;SDS011;8103;51.340;12.326;2023-04-15T14:42:49;13.15;;;10.75;;
15996;SDS011;8103;51.340;12.326;2023-04-15T14:45:15;13.00;;;10.45;;
15996;SDS011;8103;51.340;12.326;2023-04-15T14:47:45;65.15;;;43.83;;
15996;SDS011;8103;51.340;12.326;2023-04-15T14:50:12;44.45;;;33.13;;
15996;SDS011;8103;51.340;12.326;2023-04-15T14:52:39;44.95;;;29.65;;
15996;SDS011;8103;51.340;12.326;2023-04-15T14:55:08;33.78;;;26.92;;
15996;SDS011;8103;51.340;12.326;2023-04-15T14:57:41;29.58;;;25.00;;
15996;SDS011;8103;51.340;12.326;2023-04-15T15:00:08;23.05;;;19.13;;
15996;SDS011;8103;51.340;12.326;2023-04-15T15:02:40;17.13;;;15.35;;
15996;SDS011;8103;51.340;12.326;2023-04-15T15:05:10;11.75;;;10.65;;
15996;SDS011;8103;51.340;12.326;2023-04-15T15:07:37;12.30;;;11.15;;
15996;SDS011;8103;51.340;12.326;2023-04-15T15:10:06;10.57;;;9.57;;
15996;SDS011;8103;51.340;12.326;2023-04-15T15:12:34;11.38;;;10.07;;
15996;SDS011;8103;51.340;12.326;2023-04-15T15:15:01;11.23;;;10.13;;
15996;SDS011;8103;51.340;12.326;2023-04-15T15:17:37;13.00;;;10.95;;